Time;durP1;ratioP1;P1;durP2;ratioP2;P2;SDS_P1;SDS_P2;PMS_P1;PMS_P2;Temp;Humidity;BMP_temperature;BMP_pressure;BME280_temperature;BME280_humidity;BME280_pressure;Samples;Min_cycle;Max_cycle;Signal;HPM_P1;HPM_P2
2021/07/13 09:06:53;;;;;;;1032.30;953.60;;;19.70;99.90;;;;;;5091119;27;20571;-73
2021/07/13 09:09:31;;;;;;;1172.72;999.90;;;19.70;99.90;;;;;;5091076;28;20171;-70
2021/07/13 09:12:12;;;;;;;1174.30;999.90;;;19.80;99.90;;;;;;5091114;28;20167;-70
2021/07/13 09:14:57;;;;;;;1139.43;999.90;;;19.80;99.90;;;;;;5091134;28;20168;-70
2021/07/13 09:17:30;;;;;;;1035.03;960.30;;;19.80;99.90;;;;;;5089759;28;20220;-70
2021/07/13 09:20:11;;;;;;;967.95;901.55;;;19.80;99.90;;;;;;5089836;28;20171;-71
2021/07/13 09:22:40;;;;;;;1017.60;944.88;;;19.90;99.90;;;;;;5090875;28;20168;-71
2021/07/13 09:25:30;;;;;;;964.90;897.92;;;19.90;99.90;;;;;;5090525;28;20199;-71
2021/07/13 09:28:04;;;;;;;867.70;811.40;;;19.90;99.90;;;;;;5090581;28;20160;-71
2021/07/13 09:30:31;;;;;;;665.90;626.38;;;19.90;99.90;;;;;;5090913;28;20249;-72
2021/07/13 09:33:11;;;;;;;675.38;634.63;;;20.00;99.90;;;;;;5090819;28;20650;-72
2021/07/13 09:35:37;;;;;;;667.88;627.28;;;20.00;99.90;;;;;;5089190;28;20596;-71
2021/07/13 09:38:03;;;;;;;607.85;572.42;;;20.00;99.90;;;;;;5090432;28;20198;-72
2021/07/13 09:40:36;;;;;;;395.88;374.02;;;20.10;99.90;;;;;;5089313;28;20167;-72
2021/07/13 09:43:02;;;;;;;463.50;437.63;;;20.10;99.90;;;;;;5089180;28;20186;-72
2021/07/13 09:45:33;;;;;;;328.67;310.92;;;20.10;99.90;;;;;;5090246;28;20199;-73
2021/07/13 09:48:08;;;;;;;328.00;310.23;;;20.20;99.90;;;;;;5088776;28;20174;-70
2021/07/13 09:50:43;;;;;;;374.33;354.10;;;20.20;99.90;;;;;;5088894;28;20167;-70
2021/07/13 09:53:17;;;;;;;413.30;390.90;;;20.10;99.90;;;;;;5090365;28;20170;-70
2021/07/13 09:55:45;;;;;;;471.17;444.98;;;20.00;99.90;;;;;;5090309;28;20178;-71
2021/07/13 09:58:16;;;;;;;546.10;514.95;;;20.00;99.90;;;;;;5088878;28;20534;-71
2021/07/13 10:00:43;;;;;;;459.77;434.48;;;19.90;99.90;;;;;;5090227;28;20254;-72
2021/07/13 10:03:13;;;;;;;333.98;316.30;;;19.90;99.90;;;;;;5090241;28;20647;-71
2021/07/13 10:05:39;;;;;;;392.88;372.08;;;19.90;99.90;;;;;;5088847;28;20258;-71
2021/07/13 10:08:06;;;;;;;577.38;544.28;;;19.90;99.90;;;;;;5090173;28;20170;-70
2021/07/13 10:10:33;;;;;;;612.83;576.58;;;19.90;99.90;;;;;;5090071;28;20167;-71
2021/07/13 10:12:59;;;;;;;510.58;481.75;;;20.00;99.90;;;;;;5089900;28;20171;-71
2021/07/13 10:15:25;;;;;;;498.75;469.95;;;20.10;99.90;;;;;;5089829;28;20195;-71
2021/07/13 10:17:52;;;;;;;340.80;322.60;;;20.10;99.90;;;;;;5077001;28;20263;-71
2021/07/13 10:20:22;;;;;;;268.10;254.38;;;20.20;99.90;;;;;;5076203;28;20172;-72
2021/07/13 10:22:49;;;;;;;420.60;397.40;;;20.20;99.90;;;;;;5076179;28;20625;-72
2021/07/13 10:25:15;;;;;;;391.60;370.52;;;20.30;99.90;;;;;;5076287;28;20199;-72
2021/07/13 10:27:47;;;;;;;447.67;422.15;;;20.30;99.90;;;;;;5076171;28;20570;-72
2021/07/13 10:30:16;;;;;;;426.65;402.73;;;20.30;99.90;;;;;;5076170;28;20164;-72
2021/07/13 10:32:43;;;;;;;430.63;407.15;;;20.20;99.90;;;;;;5074881;28;20570;-72
2021/07/13 10:35:23;;;;;;;507.73;478.33;;;20.20;99.90;;;;;;5074903;28;20175;-73
2021/07/13 10:37:55;;;;;;;491.20;463.58;;;20.20;99.90;;;;;;5075950;28;20594;-73
2021/07/13 10:40:38;;;;;;;658.75;617.70;;;20.10;99.90;;;;;;5076080;28;20226;-73
2021/07/13 10:43:05;;;;;;;670.05;628.80;;;20.10;99.90;;;;;;5075977;28;20204;-72
2021/07/13 10:45:46;;;;;;;691.58;648.28;;;20.10;99.90;;;;;;5075711;28;20196;-71
2021/07/13 10:48:17;;;;;;;791.38;740.90;;;20.00;99.90;;;;;;5074727;28;20645;-71
2021/07/13 10:50:42;;;;;;;807.25;755.70;;;19.90;99.90;;;;;;5075721;28;20168;-69
2021/07/13 10:53:23;;;;;;;762.65;713.22;;;20.00;99.90;;;;;;5075744;28;20221;-72
2021/07/13 10:55:53;;;;;;;695.92;652.42;;;20.10;99.90;;;;;;5075782;28;20167;-74
2021/07/13 10:58:19;;;;;;;575.20;540.92;;;20.20;99.90;;;;;;5075727;28;20724;-72
2021/07/13 11:00:50;;;;;;;495.92;466.85;;;20.40;99.90;;;;;;5075509;28;20168;-72
2021/07/13 11:03:27;;;;;;;512.97;481.67;;;20.60;99.90;;;;;;5075464;28;20196;-73
2021/07/13 11:05:54;;;;;;;418.15;394.33;;;20.70;99.90;;;;;;5074107;28;20276;-73
2021/07/13 11:08:39;;;;;;;269.83;256.35;;;20.80;99.90;;;;;;5075356;28;20176;-73
2021/07/13 11:11:22;;;;;;;245.40;233.10;;;20.90;99.90;;;;;;5075638;28;20164;-72
2021/07/13 11:13:52;;;;;;;263.30;250.02;;;21.00;99.90;;;;;;5075428;28;20238;-72
2021/07/13 11:16:26;;;;;;;248.60;235.35;;;21.00;99.90;;;;;;5075283;28;20164;-72
2021/07/13 11:18:53;;;;;;;265.67;252.23;;;20.90;99.90;;;;;;5075421;28;20167;-73
2021/07/13 11:21:23;;;;;;;263.10;249.48;;;20.90;99.90;;;;;;5075118;28;20160;-71
2021/07/13 11:23:58;;;;;;;261.17;247.68;;;21.00;99.90;;;;;;5075068;28;20160;-71
2021/07/13 11:26:26;;;;;;;223.60;212.15;;;21.00;99.90;;;;;;5074985;28;20241;-70
2021/07/13 11:29:03;;;;;;;276.67;262.20;;;21.00;99.90;;;;;;5074067;28;20176;-71
2021/07/13 11:31:31;;;;;;;243.15;230.75;;;21.00;99.90;;;;;;5074944;28;20568;-71
2021/07/13 11:34:02;;;;;;;301.15;285.67;;;21.10;99.90;;;;;;5074684;28;20207;-71
2021/07/13 11:36:42;;;;;;;280.95;266.27;;;21.20;99.90;;;;;;5074863;28;20180;-71
2021/07/13 11:39:11;;;;;;;282.23;267.33;;;21.40;99.90;;;;;;5074276;28;20624;-71
2021/07/13 11:41:38;;;;;;;358.45;339.73;;;21.50;99.90;;;;;;5074132;28;20180;-71
2021/07/13 11:44:06;;;;;;;519.80;490.70;;;21.70;99.90;;;;;;5072855;28;20229;-71
2021/07/13 11:46:34;;;;;;;608.53;571.85;;;22.00;99.90;;;;;;5074270;28;20218;-71
2021/07/13 11:49:06;;;;;;;600.80;565.80;;;22.10;99.90;;;;;;5073195;28;20168;-71
2021/07/13 11:51:43;;;;;;;618.50;581.90;;;22.20;99.90;;;;;;5073256;28;20176;-72
2021/07/13 11:54:10;;;;;;;661.40;621.22;;;22.30;99.90;;;;;;5073172;28;20211;-73
2021/07/13 11:56:39;;;;;;;649.65;610.55;;;22.50;99.90;;;;;;5072504;28;20612;-73
2021/07/13 11:59:05;;;;;;;659.50;619.95;;;22.60;99.90;;;;;;5073553;28;20175;-73
2021/07/13 12:01:33;;;;;;;706.78;662.97;;;22.80;99.90;;;;;;5073600;28;20172;-73
2021/07/13 12:04:13;;;;;;;743.70;697.35;;;23.00;99.90;;;;;;5073785;28;20648;-73
2021/07/13 12:06:41;;;;;;;805.92;753.92;;;23.20;99.90;;;;;;5073697;28;20295;-73
2021/07/13 12:09:12;;;;;;;756.63;709.10;;;23.30;99.90;;;;;;5074084;28;20273;-73
2021/07/13 12:11:46;;;;;;;731.00;685.08;;;23.40;99.90;;;;;;5074204;28;20627;-73
2021/07/13 12:14:14;;;;;;;776.25;726.85;;;23.40;99.90;;;;;;5074231;28;20215;-73
2021/07/13 12:16:41;;;;;;;723.30;678.17;;;23.50;99.90;;;;;;5074226;28;20175;-73
2021/07/13 12:19:11;;;;;;;751.13;703.42;;;23.50;99.90;;;;;;5074018;28;20172;-72
2021/07/13 12:21:46;;;;;;;696.33;652.83;;;23.60;99.90;;;;;;5074095;28;20282;-73
2021/07/13 12:24:16;;;;;;;757.38;708.90;;;23.60;99.90;;;;;;5074086;28;20163;-73
2021/07/13 12:26:52;;;;;;;772.15;722.22;;;23.60;99.90;;;;;;5073892;28;20197;-73
2021/07/13 12:29:22;;;;;;;827.10;772.72;;;23.70;99.90;;;;;;5073960;28;20170;-73
2021/07/13 12:31:48;;;;;;;748.17;699.92;;;23.70;99.90;;;;;;5073918;28;20241;-73
2021/07/13 12:34:36;;;;;;;806.60;753.78;;;23.80;99.90;;;;;;5073830;28;20160;-74
2021/07/13 12:37:05;;;;;;;829.75;775.35;;;23.80;99.90;;;;;;5073223;28;20217;-74
2021/07/13 12:39:31;;;;;;;862.88;805.30;;;23.80;99.90;;;;;;5072347;28;20710;-72
2021/07/13 12:42:01;;;;;;;889.45;828.70;;;23.80;99.90;;;;;;5073756;28;20168;-72
2021/07/13 12:44:31;;;;;;;897.30;835.17;;;23.80;99.90;;;;;;5073587;28;20168;-71
2021/07/13 12:47:27;;;;;;;890.28;829.38;;;23.70;99.90;;;;;;5073825;28;20168;-72
2021/07/13 12:50:16;;;;;;;875.50;816.40;;;23.50;99.90;;;;;;5073699;28;20160;-71
2021/07/13 12:52:54;;;;;;;869.90;811.85;;;23.30;99.90;;;;;;5073682;28;20517;-71
2021/07/13 12:55:40;;;;;;;851.42;794.83;;;23.20;99.90;;;;;;5072511;28;20195;-71
2021/07/13 12:58:25;;;;;;;809.10;756.22;;;23.10;99.90;;;;;;5073532;28;20164;-71
2021/07/13 13:00:56;;;;;;;779.92;730.10;;;22.90;99.90;;;;;;5073521;28;20228;-71
2021/07/13 13:03:25;;;;;;;734.78;688.72;;;22.80;99.90;;;;;;5072379;28;20183;-71
2021/07/13 13:05:55;;;;;;;669.90;628.75;;;22.60;99.90;;;;;;5073491;28;20221;-71
2021/07/13 13:08:32;;;;;;;612.22;575.13;;;22.50;99.90;;;;;;5073417;28;20655;-71
2021/07/13 13:11:09;;;;;;;500.92;472.33;;;22.40;99.90;;;;;;5073353;28;20880;-71
2021/07/13 13:13:37;;;;;;;375.10;355.38;;;22.30;99.90;;;;;;5073467;28;20240;-71
2021/07/13 13:16:05;;;;;;;408.60;386.50;;;22.30;99.90;;;;;;5072099;28;20200;-70
2021/07/13 13:18:32;;;;;;;348.15;330.05;;;22.30;99.90;;;;;;5073459;28;20164;-70
2021/07/13 13:20:59;;;;;;;348.30;329.65;;;22.30;99.90;;;;;;5073466;28;20199;-71
2021/07/13 13:23:25;;;;;;;325.40;308.05;;;22.30;99.90;;;;;;5073335;28;20168;-70
2021/07/13 13:25:51;;;;;;;418.05;395.60;;;22.40;99.90;;;;;;5073305;28;20250;-70
2021/07/13 13:28:18;;;;;;;415.73;393.27;;;22.50;99.90;;;;;;5073377;28;20191;-70
2021/07/13 13:30:44;;;;;;;401.13;379.83;;;22.50;99.90;;;;;;5073246;28;20217;-72
2021/07/13 13:33:11;;;;;;;492.63;464.80;;;22.50;99.90;;;;;;5073186;28;20176;-71
2021/07/13 13:40:51;;;;;;;429.13;406.23;;;22.60;99.90;;;;;;5073377;28;20206;-71
2021/07/13 13:43:16;;;;;;;369.13;349.45;;;22.60;99.90;;;;;;5073104;28;20192;-73
2021/07/13 13:45:42;;;;;;;384.05;363.77;;;22.60;99.90;;;;;;5073110;28;20176;-71
2021/07/13 13:48:08;;;;;;;305.42;289.92;;;22.60;99.90;;;;;;5073111;28;20179;-71
2021/07/13 13:50:33;;;;;;;377.10;357.10;;;22.50;99.90;;;;;;5073014;28;20176;-71
2021/07/13 13:52:59;;;;;;;349.90;331.73;;;22.50;99.90;;;;;;5075956;28;20576;-71
2021/07/13 13:55:25;;;;;;;286.27;271.67;;;22.60;99.90;;;;;;5076738;28;20199;-73
2021/07/13 13:57:51;;;;;;;337.95;320.25;;;22.60;99.90;;;;;;5076620;28;20164;-70
2021/07/13 14:00:19;;;;;;;337.92;320.48;;;22.50;99.90;;;;;;5076795;28;20187;-71
2021/07/13 14:02:47;;;;;;;302.80;287.08;;;22.50;99.90;;;;;;5076642;28;20200;-71
2021/07/13 14:05:13;;;;;;;257.15;244.07;;;22.40;99.90;;;;;;5076602;28;20254;-71
2021/07/13 14:07:39;;;;;;;306.30;290.50;;;22.30;99.90;;;;;;5076717;28;20164;-73
2021/07/13 14:10:06;;;;;;;308.85;293.10;;;22.30;99.90;;;;;;5076642;28;20502;-72
2021/07/13 14:12:31;;;;;;;336.60;319.50;;;22.30;99.90;;;;;;5076407;28;20171;-72
2021/07/13 14:14:57;;;;;;;327.55;310.58;;;22.20;99.90;;;;;;5076194;28;20194;-72
2021/07/13 14:17:24;;;;;;;341.40;323.50;;;22.10;99.90;;;;;;5076425;28;20170;-72
2021/07/13 14:19:51;;;;;;;300.38;285.23;;;22.00;99.90;;;;;;5076654;28;20221;-72
2021/07/13 14:22:17;;;;;;;335.27;317.73;;;22.00;99.90;;;;;;5076384;28;20170;-73
2021/07/13 14:24:43;;;;;;;398.60;377.27;;;22.10;99.90;;;;;;5076311;28;20172;-72
2021/07/13 14:27:09;;;;;;;408.25;386.27;;;22.00;99.90;;;;;;5076272;28;20217;-71
2021/07/13 14:29:34;;;;;;;506.65;477.90;;;22.00;99.90;;;;;;5076177;28;20297;-71
2021/07/13 14:32:00;;;;;;;539.28;507.50;;;21.80;99.90;;;;;;5076162;28;20195;-71
2021/07/13 14:34:26;;;;;;;686.60;644.50;;;21.80;99.90;;;;;;5076047;28;20225;-71
2021/07/13 14:36:51;;;;;;;706.90;663.10;;;21.70;99.90;;;;;;5075999;28;20199;-71
2021/07/13 14:39:17;;;;;;;592.83;556.60;;;21.70;99.90;;;;;;5076402;28;20176;-70
2021/07/13 14:41:43;;;;;;;448.13;423.30;;;21.60;99.90;;;;;;5075976;28;20167;-71
2021/07/13 14:44:09;;;;;;;486.52;458.48;;;21.70;99.90;;;;;;5076039;28;20186;-71
2021/07/13 14:46:35;;;;;;;373.77;353.38;;;21.60;99.90;;;;;;5075912;28;20168;-71
2021/07/13 14:49:01;;;;;;;363.40;344.58;;;21.60;99.90;;;;;;5074693;28;20180;-71
2021/07/13 14:51:26;;;;;;;362.45;343.10;;;21.50;99.90;;;;;;5074611;28;20176;-72
2021/07/13 14:53:52;;;;;;;360.73;341.60;;;21.50;99.90;;;;;;5075622;28;20628;-73
2021/07/13 14:56:18;;;;;;;333.60;316.17;;;21.50;99.90;;;;;;5075664;28;20199;-71
2021/07/13 14:58:43;;;;;;;516.17;487.20;;;20.90;99.90;;;;;;5075727;28;20218;-71
2021/07/13 15:01:09;;;;;;;347.02;328.30;;;21.50;99.90;;;;;;5075618;28;20170;-70
2021/07/13 15:03:34;;;;;;;316.58;300.35;;;21.50;99.90;;;;;;5075290;28;20254;-71
2021/07/13 15:06:00;;;;;;;357.52;338.00;;;21.60;99.90;;;;;;5075441;28;20269;-71
2021/07/13 15:08:26;;;;;;;293.88;278.40;;;21.60;99.90;;;;;;5075738;28;20202;-72
2021/07/13 15:10:53;;;;;;;581.05;547.20;;;21.50;99.90;;;;;;5075470;28;20267;-71
2021/07/13 15:13:20;;;;;;;589.45;555.20;;;21.50;99.90;;;;;;5074176;28;20171;-71
2021/07/13 15:15:46;;;;;;;752.22;704.05;;;21.40;99.90;;;;;;5075145;28;20231;-71
2021/07/13 15:18:12;;;;;;;458.00;433.05;;;21.30;99.90;;;;;;5075318;28;20564;-71
2021/07/13 15:20:39;;;;;;;612.45;576.70;;;21.30;99.90;;;;;;5075242;28;20172;-71
2021/07/13 15:23:05;;;;;;;700.30;656.97;;;21.20;99.90;;;;;;5075179;28;20210;-71
2021/07/13 15:25:31;;;;;;;750.00;702.45;;;21.20;99.90;;;;;;5074853;28;20171;-71
2021/07/13 15:27:57;;;;;;;875.60;816.63;;;21.10;99.90;;;;;;5075020;28;20251;-71
2021/07/13 15:30:22;;;;;;;823.40;769.97;;;21.10;99.90;;;;;;5074928;28;20247;-71
2021/07/13 15:32:48;;;;;;;621.90;583.97;;;21.00;99.90;;;;;;5074947;28;20290;-70
2021/07/13 15:35:14;;;;;;;822.83;769.08;;;21.00;99.90;;;;;;5074811;28;20703;-72
2021/07/13 15:37:40;;;;;;;873.75;814.95;;;21.00;99.90;;;;;;5074801;28;20168;-69
2021/07/13 15:40:07;;;;;;;773.45;723.53;;;21.00;99.90;;;;;;5074781;28;20178;-72
2021/07/13 15:42:33;;;;;;;851.88;796.58;;;21.00;99.90;;;;;;5074692;28;20524;-72
2021/07/13 15:44:59;;;;;;;810.78;759.05;;;21.00;99.90;;;;;;5074508;28;20176;-69
2021/07/13 15:47:24;;;;;;;824.10;770.90;;;20.90;99.90;;;;;;5074749;28;20314;-70
2021/07/13 15:49:50;;;;;;;751.03;704.03;;;20.90;99.90;;;;;;5074527;28;20168;-70
2021/07/13 15:52:15;;;;;;;839.13;785.20;;;20.90;99.90;;;;;;5073298;28;20272;-70
2021/07/13 16:03:59;;;;;;;902.35;843.92;;;21.30;99.90;;;;;;5070812;28;20546;-73
2021/07/13 16:06:24;;;;;;;997.55;925.88;;;21.40;99.90;;;;;;5070932;28;20168;-73
2021/07/13 16:08:50;;;;;;;913.63;852.67;;;21.50;99.90;;;;;;5070843;28;20172;-73
2021/07/13 16:11:16;;;;;;;685.85;644.70;;;21.60;99.90;;;;;;5069814;28;20171;-73
2021/07/13 16:13:41;;;;;;;596.95;560.75;;;21.70;99.90;;;;;;5070846;28;20178;-73
2021/07/13 16:16:08;;;;;;;493.98;464.88;;;21.70;99.90;;;;;;5070666;28;20176;-73
2021/07/13 16:18:33;;;;;;;441.73;416.35;;;21.70;99.90;;;;;;5070704;28;20175;-70
2021/07/13 16:20:59;;;;;;;390.85;368.90;;;21.70;99.90;;;;;;5070499;28;20516;-70
2021/07/13 16:23:27;;;;;;;475.67;447.42;;;21.00;99.90;;;;;;5070493;28;20566;-70
2021/07/13 16:25:53;;;;;;;412.48;388.67;;;21.70;99.90;;;;;;5070531;28;20160;-71
2021/07/13 16:28:19;;;;;;;385.40;364.40;;;21.80;99.90;;;;;;5070679;28;20168;-70
2021/07/13 16:30:44;;;;;;;429.42;404.80;;;21.60;99.90;;;;;;5070340;28;20507;-70
2021/07/13 16:33:10;;;;;;;468.23;440.50;;;21.60;99.90;;;;;;5070351;28;20175;-68
2021/07/13 16:35:36;;;;;;;401.17;379.02;;;21.60;99.90;;;;;;5070457;28;20543;-68
2021/07/13 16:38:02;;;;;;;420.67;395.33;;;21.70;99.90;;;;;;5070459;28;20207;-68
2021/07/13 16:40:27;;;;;;;402.77;379.35;;;21.80;99.90;;;;;;5070199;28;20164;-67
2021/07/13 16:42:53;;;;;;;305.17;289.13;;;21.90;99.90;;;;;;5069891;28;20196;-68
2021/07/13 16:45:19;;;;;;;316.48;299.65;;;22.00;99.90;;;;;;5069796;28;20575;-68
2021/07/13 16:47:47;;;;;;;346.73;328.27;;;;;;;;;;5070129;28;20168;-68
2021/07/13 16:50:14;;;;;;;345.42;326.88;;;22.20;99.90;;;;;;5070325;28;20250;-68
2021/07/13 16:52:42;;;;;;;353.52;334.55;;;22.20;99.90;;;;;;5069766;28;20196;-68
2021/07/13 16:55:08;;;;;;;461.83;434.65;;;22.90;99.90;;;;;;5069163;28;20175;-68
2021/07/13 16:57:33;;;;;;;348.55;330.00;;;22.40;99.90;;;;;;5068812;28;20178;-68
2021/07/13 17:00:01;;;;;;;398.15;376.13;;;;;;;;;;5068960;28;20583;-67
2021/07/13 17:02:28;;;;;;;484.70;456.85;;;;;;;;;;5069553;28;20227;-67
2021/07/13 17:04:53;;;;;;;496.30;467.92;;;21.90;99.90;;;;;;5069757;28;20598;-68
2021/07/13 17:07:19;;;;;;;455.52;429.30;;;;;;;;;;5068926;28;20164;-71
2021/07/13 17:09:48;;;;;;;336.15;317.85;;;22.60;99.90;;;;;;5069373;28;20160;-70
2021/07/13 17:12:14;;;;;;;252.90;240.27;;;22.90;99.90;;;;;;5069474;28;20183;-70
2021/07/13 17:14:39;;;;;;;305.52;290.20;;;23.20;99.90;;;;;;5058638;28;20271;-70
2021/07/13 17:17:05;;;;;;;334.65;317.33;;;23.60;99.90;;;;;;5055759;28;20204;-70
2021/07/13 17:19:30;;;;;;;402.65;381.20;;;23.90;99.90;;;;;;5056025;28;20173;-68
2021/07/13 17:21:56;;;;;;;488.58;461.33;;;24.10;99.90;;;;;;5056291;28;20201;-69
2021/07/13 17:24:22;;;;;;;512.42;482.73;;;;;;;;;;5056366;28;20173;-69
2021/07/13 17:26:49;;;;;;;514.63;484.75;;;;;;;;;;5056141;28;20259;-69
2021/07/13 17:29:15;;;;;;;463.40;437.25;;;;;;;;;;5056278;28;20169;-69
2021/07/13 17:31:43;;;;;;;561.80;528.40;;;;;;;;;;5054905;28;20546;-69
2021/07/13 17:34:09;;;;;;;430.02;406.33;;;23.70;99.90;;;;;;5056301;28;20244;-69
2021/07/13 17:36:35;;;;;;;428.25;404.27;;;23.60;99.90;;;;;;5055958;28;20185;-69
2021/07/13 17:39:02;;;;;;;405.95;383.30;;;23.10;99.90;;;;;;5055939;28;20200;-69
2021/07/13 17:41:29;;;;;;;394.98;373.50;;;;;;;;;;5055800;28;20169;-69
2021/07/13 17:43:55;;;;;;;386.45;365.58;;;;;;;;;;5055713;28;20267;-69
2021/07/13 17:46:21;;;;;;;509.67;479.00;;;;;;;;;;5055806;28;20222;-69
2021/07/13 17:48:49;;;;;;;579.33;543.72;;;;;;;;;;5055777;28;20173;-69
2021/07/13 17:51:16;;;;;;;711.60;666.50;;;;;;;;;;5054801;28;20515;-69
2021/07/13 17:53:42;;;;;;;943.35;878.13;;;;;;;;;;5055847;28;20176;-69
2021/07/13 17:56:10;;;;;;;883.25;823.47;;;;;;;;;;5055611;28;20173;-69
2021/07/13 17:58:37;;;;;;;904.17;842.72;;;;;;;;;;5055472;28;20192;-69
2021/07/13 18:01:03;;;;;;;1029.43;952.00;;;21.80;99.90;;;;;;5054392;28;20222;-69
2021/07/13 18:03:28;;;;;;;984.22;913.03;;;21.90;99.90;;;;;;5055471;28;20224;-69
2021/07/13 18:05:54;;;;;;;905.88;844.50;;;21.90;99.90;;;;;;5054356;28;20264;-69
2021/07/13 18:08:19;;;;;;;766.67;717.85;;;22.00;99.90;;;;;;5055373;28;20504;-69
2021/07/13 18:10:45;;;;;;;751.67;703.90;;;22.00;99.90;;;;;;5055311;28;20179;-69
2021/07/13 18:13:12;;;;;;;681.75;639.13;;;22.00;99.90;;;;;;5055430;28;20574;-69
2021/07/13 18:15:38;;;;;;;705.28;660.08;;;22.10;99.90;;;;;;5054248;28;20256;-69
2021/07/13 18:18:04;;;;;;;921.45;859.10;;;22.00;99.90;;;;;;5055238;28;20180;-69
2021/07/13 18:20:30;;;;;;;853.80;797.42;;;22.00;99.90;;;;;;5055302;28;20168;-69
2021/07/13 18:22:55;;;;;;;906.50;845.28;;;22.00;99.90;;;;;;5055151;28;20188;-69
2021/07/13 18:25:21;;;;;;;1012.47;939.22;;;21.90;99.90;;;;;;5054322;28;20169;-69
2021/07/13 18:27:46;;;;;;;1082.43;997.20;;;21.80;99.90;;;;;;5054928;28;20281;-69
2021/07/13 18:30:14;;;;;;;1068.55;985.88;;;21.70;99.90;;;;;;5055234;28;20161;-69
2021/07/13 18:32:40;;;;;;;1109.78;999.90;;;21.60;99.90;;;;;;5054919;28;20504;-69
2021/07/13 18:35:06;;;;;;;1145.00;999.90;;;21.60;99.90;;;;;;5054916;28;20514;-69
2021/07/13 18:37:32;;;;;;;1140.65;999.90;;;21.50;99.90;;;;;;5054978;28;20565;-69
2021/07/13 18:39:58;;;;;;;1131.70;999.90;;;21.40;99.90;;;;;;5054687;28;20176;-69
2021/07/13 18:42:27;;;;;;;1147.50;999.90;;;21.30;99.90;;;;;;5054805;28;20203;-69
